WMSAWSSL

Guest
Details From WMSA - Kuala Lumpur S Abdul Aziz Shah
To WSSL - Seletar
Flight Number -
Tags decoded
Created
Modified
Stats Distance 185 nm / 343 km
Max Altitude 0 ft / 0 m
Waypoints 11
Social Downloads 0
Likes 0
Share VATSIM

Download

Looking for another format? Having issues loading an existing format? Contact us
Advertisement - Login to hide

Notes

Requested: WMSA VKL A464 LELIB W401 JB KK WSSL

Route

WMSA VKL A464 LELIB W401 JB WSSL

ID Type Via Altitude Latitude Longitude Leg Dist Tot Dist Heading (true) Name
O WMSA APT - 0 ft / 0 m 3.13058˚ 101.54933˚ - 0 nm - Kuala Lumpur S Abdul Aziz Shah
VKL VOR - 0 ft / 0 m 2.72444˚ 101.73806˚ 26 nm 26 nm 155° / 155° KUALA LUMPUR VOR-DME
DUMOK FIX A464 (AWY-HI) 0 ft / 0 m 2.30278˚ 102.00194˚ 29 nm 56 nm 148° / 148° -
BATAR FIX A464 (AWY-HI) 0 ft / 0 m 2.16667˚ 102.08694˚ 9 nm 66 nm 148° / 148° -
OGAKO FIX A464 (AWY-LO) 0 ft / 0 m 1.98056˚ 102.43556˚ 23 nm 90 nm 118° / 118° -
TOPOR FIX A464 (AWY-HI) 0 ft / 0 m 1.73667˚ 102.89167˚ 31 nm 121 nm 118° / 118° -
ARAMA FIX A464 (AWY-HI) 0 ft / 0 m 1.61500˚ 103.12000˚ 15 nm 136 nm 118° / 118° -
SJ035 FIX A464 (AWY-HI) 0 ft / 0 m 1.49833˚ 103.34000˚ 14 nm 151 nm 118° / 118° -
LELIB FIX A464 (AWY-LO) 0 ft / 0 m 1.45806˚ 103.41389˚ 5 nm 156 nm 119° / 119° -
JB NDB W401 (AWY-LO) 0 ft / 0 m 1.49994˚ 103.71162˚ 18 nm 174 nm 82° / 82° JAYBEE NDB
O WSSL APT - 0 ft / 0 m 1.41643˚ 103.86730˚ 10 nm 185 nm 118° / 118° Seletar

Altitude Profile

Advertisement - Login to hide

Weather


0- 5 10 15 20 25 30 35+ Temperature / ° C

Clouds and Precipitation
Forecast for 2017-12-11 06:00 UTC. Updated an hour ago

Ground ~20,000 ft ~40,000 ft Winds

WMSA

Details ICAO WMSA (SZB)
Name Kuala Lumpur S Abdul Aziz Shah
Region Malaysia (Peninsular Malaysia)
Timezone Asia/Kuala_Lumpur (UTC+8.0)
Stats Elevation 90 ft / 27 m (AMSL)
Location 3.130583° 101.549334°
Runways 1
Magnetic Variation 0.027° W

METAR

WMSA 110600Z 23005KT 190V280 9999 FEW017CB SCT140 BKN270 29/25 Q1010

Decode

TAF

Not found

Departure Runways

ID Width Length Bearing (true) Bearing (mag) Surface Threshold Offset Overrun Length
15 148 ft / 45 m 12,450 ft / 3,795 m 149.84° 149.87° Asphalt 0 ft / 0 m 200 ft / 61 m
33 148 ft / 45 m 12,450 ft / 3,795 m 329.84° 329.87° Asphalt 0 ft / 0 m 200 ft / 61 m

WSSL

Details ICAO WSSL (XSP)
Name Seletar
Region Singapore
Timezone Asia/Singapore (UTC+8.0)
Stats Elevation 36 ft / 11 m (AMSL)
Location 1.416427° 103.867299°
Runways 1
Magnetic Variation 0.218° E

METAR

WSSL 110600Z 02008KT 340V050 9999 FEW018TCU SCT020 BKN300 32/23 Q1010

Decode

TAF

Not found

Destination Runways

ID Width Length Bearing (true) Bearing (mag) Surface Threshold Offset Overrun Length
03 151 ft / 46 m 5,243 ft / 1,598 m 33.15° 32.93° Asphalt 0 ft / 0 m 197 ft / 60 m
21 151 ft / 46 m 5,243 ft / 1,598 m 213.15° 212.93° Asphalt 0 ft / 0 m 197 ft / 60 m

Popular Alternatives